sensor_id;sensor_type;location;lat;lon;timestamp;pressure;altitude;pressure_sealevel;temperature;humidity
38880;BME280;25887;30.194;-97.880;2023-06-14T00:01:06;97607.00;;;35.07;45.96
38880;BME280;25887;30.194;-97.880;2023-06-14T00:03:32;97622.19;;;35.06;46.62
38880;BME280;25887;30.194;-97.880;2023-06-14T00:05:59;97627.69;;;35.05;46.31
38880;BME280;25887;30.194;-97.880;2023-06-14T00:08:25;97628.72;;;35.04;46.50
38880;BME280;25887;30.194;-97.880;2023-06-14T00:10:51;97648.41;;;35.03;46.35
38880;BME280;25887;30.194;-97.880;2023-06-14T00:13:17;97650.41;;;35.01;46.53
38880;BME280;25887;30.194;-97.880;2023-06-14T00:15:43;97646.06;;;35.00;46.75
38880;BME280;25887;30.194;-97.880;2023-06-14T00:18:10;97653.41;;;34.98;46.67
38880;BME280;25887;30.194;-97.880;2023-06-14T00:20:37;97647.25;;;34.97;46.75
38880;BME280;25887;30.194;-97.880;2023-06-14T00:23:05;97645.78;;;34.95;46.99
38880;BME280;25887;30.194;-97.880;2023-06-14T00:25:31;97641.41;;;34.94;47.22
38880;BME280;25887;30.194;-97.880;2023-06-14T00:27:57;97646.09;;;34.92;46.93
38880;BME280;25887;30.194;-97.880;2023-06-14T00:30:24;97654.09;;;34.92;46.89
38880;BME280;25887;30.194;-97.880;2023-06-14T00:32:51;97658.75;;;34.89;46.82
38880;BME280;25887;30.194;-97.880;2023-06-14T00:35:17;97656.25;;;34.88;47.06
38880;BME280;25887;30.194;-97.880;2023-06-14T00:37:43;97654.59;;;34.87;47.10
38880;BME280;25887;30.194;-97.880;2023-06-14T00:40:09;97653.91;;;34.85;47.04
38880;BME280;25887;30.194;-97.880;2023-06-14T00:42:36;97649.59;;;34.84;47.02
38880;BME280;25887;30.194;-97.880;2023-06-14T00:45:02;97647.09;;;34.82;47.13
38880;BME280;25887;30.194;-97.880;2023-06-14T00:47:28;97656.09;;;34.81;47.09
38880;BME280;25887;30.194;-97.880;2023-06-14T00:49:55;97652.78;;;34.79;46.83
38880;BME280;25887;30.194;-97.880;2023-06-14T00:52:25;97651.09;;;34.78;46.93
38880;BME280;25887;30.194;-97.880;2023-06-14T00:54:51;97649.59;;;34.76;47.48
38880;BME280;25887;30.194;-97.880;2023-06-14T00:57:19;97639.09;;;34.74;46.98
38880;BME280;25887;30.194;-97.880;2023-06-14T00:59:48;97646.09;;;34.75;47.05
38880;BME280;25887;30.194;-97.880;2023-06-14T01:02:15;97630.59;;;34.71;47.39
38880;BME280;25887;30.194;-97.880;2023-06-14T01:04:45;97633.25;;;34.71;47.31
38880;BME280;25887;30.194;-97.880;2023-06-14T01:07:18;97630.78;;;34.69;47.51
38880;BME280;25887;30.194;-97.880;2023-06-14T01:12:48;97618.09;;;34.63;46.98
38880;BME280;25887;30.194;-97.880;2023-06-14T01:15:42;97623.97;;;34.58;47.51
38880;BME280;25887;30.194;-97.880;2023-06-14T01:18:09;97628.66;;;34.56;47.34
38880;BME280;25887;30.194;-97.880;2023-06-14T01:20:53;97620.13;;;34.53;47.60
38880;BME280;25887;30.194;-97.880;2023-06-14T01:23:22;97613.63;;;34.47;47.32
38880;BME280;25887;30.194;-97.880;2023-06-14T01:25:50;97621.97;;;34.44;47.40
38880;BME280;25887;30.194;-97.880;2023-06-14T01:28:21;97622.16;;;34.43;47.64
38880;BME280;25887;30.194;-97.880;2023-06-14T01:30:53;97613.63;;;34.39;47.28
38880;BME280;25887;30.194;-97.880;2023-06-14T01:33:22;97602.47;;;34.35;47.35
38880;BME280;25887;30.194;-97.880;2023-06-14T01:36:03;97606.47;;;34.31;47.76
38880;BME280;25887;30.194;-97.880;2023-06-14T01:38:31;97611.47;;;34.26;47.96
38880;BME280;25887;30.194;-97.880;2023-06-14T01:40:59;97611.78;;;34.23;47.83
38880;BME280;25887;30.194;-97.880;2023-06-14T01:43:29;97614.81;;;34.20;47.96
38880;BME280;25887;30.194;-97.880;2023-06-14T01:45:57;97613.47;;;34.16;47.71
38880;BME280;25887;30.194;-97.880;2023-06-14T01:48:26;97621.16;;;34.11;48.36
38880;BME280;25887;30.194;-97.880;2023-06-14T01:50:52;97625.31;;;34.05;48.00
38880;BME280;25887;30.194;-97.880;2023-06-14T01:53:19;97623.00;;;34.02;48.12
38880;BME280;25887;30.194;-97.880;2023-06-14T01:55:46;97618.16;;;33.98;48.10
38880;BME280;25887;30.194;-97.880;2023-06-14T01:58:14;97616.97;;;33.92;48.09
38880;BME280;25887;30.194;-97.880;2023-06-14T02:00:43;97628.94;;;33.88;48.19
38880;BME280;25887;30.194;-97.880;2023-06-14T02:03:11;97627.75;;;33.83;48.57
38880;BME280;25887;30.194;-97.880;2023-06-14T02:05:38;97620.09;;;33.79;48.30
38880;BME280;25887;30.194;-97.880;2023-06-14T02:08:06;97616.91;;;33.76;48.71
38880;BME280;25887;30.194;-97.880;2023-06-14T02:10:32;97631.41;;;33.73;48.72
38880;BME280;25887;30.194;-97.880;2023-06-14T02:12:59;97631.75;;;33.70;48.98
38880;BME280;25887;30.194;-97.880;2023-06-14T02:15:25;97631.91;;;33.69;48.66
38880;BME280;25887;30.194;-97.880;2023-06-14T02:18:02;97637.56;;;33.66;48.87
38880;BME280;25887;30.194;-97.880;2023-06-14T02:20:29;97659.03;;;33.64;49.13
38880;BME280;25887;30.194;-97.880;2023-06-14T02:22:56;97665.38;;;33.63;49.35
38880;BME280;25887;30.194;-97.880;2023-06-14T02:25:26;97661.03;;;33.62;49.17
38880;BME280;25887;30.194;-97.880;2023-06-14T02:27:55;97655.03;;;33.60;49.22
38880;BME280;25887;30.194;-97.880;2023-06-14T02:30:21;97651.88;;;33.57;49.43
38880;BME280;25887;30.194;-97.880;2023-06-14T02:32:48;97646.19;;;33.51;49.47
38880;BME280;25887;30.194;-97.880;2023-06-14T02:35:16;97640.19;;;33.49;49.66
38880;BME280;25887;30.194;-97.880;2023-06-14T02:37:43;97641.00;;;33.42;49.68
38880;BME280;25887;30.194;-97.880;2023-06-14T02:40:10;97643.28;;;33.37;49.75
38880;BME280;25887;30.194;-97.880;2023-06-14T02:42:50;97648.94;;;33.34;49.63
38880;BME280;25887;30.194;-97.880;2023-06-14T02:45:17;97645.91;;;33.29;50.14
38880;BME280;25887;30.194;-97.880;2023-06-14T02:47:44;97638.56;;;33.22;49.95
38880;BME280;25887;30.194;-97.880;2023-06-14T02:50:11;97648.53;;;33.20;50.31
38880;BME280;25887;30.194;-97.880;2023-06-14T02:52:37;97648.03;;;33.17;50.49
38880;BME280;25887;30.194;-97.880;2023-06-14T02:55:05;97653.53;;;33.15;50.30
38880;BME280;25887;30.194;-97.880;2023-06-14T02:57:31;97651.34;;;33.11;50.46
38880;BME280;25887;30.194;-97.880;2023-06-14T02:59:58;97645.47;;;33.07;50.59
38880;BME280;25887;30.194;-97.880;2023-06-14T03:02:24;97657.44;;;33.03;50.28
38880;BME280;25887;30.194;-97.880;2023-06-14T03:04:50;97648.09;;;32.99;51.01
38880;BME280;25887;30.194;-97.880;2023-06-14T03:07:16;97648.75;;;32.93;50.83
38880;BME280;25887;30.194;-97.880;2023-06-14T03:09:45;97655.72;;;32.86;51.52
38880;BME280;25887;30.194;-97.880;2023-06-14T03:12:12;97657.13;;;32.80;51.60
38880;BME280;25887;30.194;-97.880;2023-06-14T03:14:40;97660.25;;;32.76;51.64
38880;BME280;25887;30.194;-97.880;2023-06-14T03:17:07;97670.72;;;32.69;52.13
38880;BME280;25887;30.194;-97.880;2023-06-14T03:19:34;97676.47;;;32.64;51.75
38880;BME280;25887;30.194;-97.880;2023-06-14T03:22:00;97678.09;;;32.57;52.48
38880;BME280;25887;30.194;-97.880;2023-06-14T03:24:26;97677.59;;;32.54;52.55
38880;BME280;25887;30.194;-97.880;2023-06-14T03:26:57;97679.03;;;32.48;52.63
38880;BME280;25887;30.194;-97.880;2023-06-14T03:29:23;97682.97;;;32.44;52.19
38880;BME280;25887;30.194;-97.880;2023-06-14T03:31:58;97685.94;;;32.41;53.04
38880;BME280;25887;30.194;-97.880;2023-06-14T03:34:25;97689.22;;;32.35;53.11
38880;BME280;25887;30.194;-97.880;2023-06-14T03:36:51;97691.63;;;32.28;53.04
38880;BME280;25887;30.194;-97.880;2023-06-14T03:39:37;97708.88;;;32.24;52.99
38880;BME280;25887;30.194;-97.880;2023-06-14T03:42:12;97713.81;;;32.19;53.09
38880;BME280;25887;30.194;-97.880;2023-06-14T03:44:38;97707.97;;;32.15;53.49
38880;BME280;25887;30.194;-97.880;2023-06-14T03:47:05;97696.94;;;32.10;53.67
38880;BME280;25887;30.194;-97.880;2023-06-14T03:49:31;97699.94;;;32.07;53.40
38880;BME280;25887;30.194;-97.880;2023-06-14T03:51:57;97697.88;;;32.01;54.00
38880;BME280;25887;30.194;-97.880;2023-06-14T03:54:24;97705.28;;;31.98;53.96
38880;BME280;25887;30.194;-97.880;2023-06-14T03:56:53;97708.41;;;31.93;53.99
38880;BME280;25887;30.194;-97.880;2023-06-14T03:59:21;97715.00;;;31.89;53.79
38880;BME280;25887;30.194;-97.880;2023-06-14T04:01:47;97716.31;;;31.85;54.05
38880;BME280;25887;30.194;-97.880;2023-06-14T04:04:14;97717.56;;;31.81;54.03
38880;BME280;25887;30.194;-97.880;2023-06-14T04:06:44;97718.72;;;31.78;54.39
38880;BME280;25887;30.194;-97.880;2023-06-14T04:09:13;97715.63;;;31.73;54.58
38880;BME280;25887;30.194;-97.880;2023-06-14T04:11:39;97719.59;;;31.69;54.78
38880;BME280;25887;30.194;-97.880;2023-06-14T04:14:06;97724.50;;;31.64;55.12
38880;BME280;25887;30.194;-97.880;2023-06-14T04:16:32;97728.28;;;31.61;54.61
38880;BME280;25887;30.194;-97.880;2023-06-14T04:18:59;97719.63;;;31.59;55.22
38880;BME280;25887;30.194;-97.880;2023-06-14T04:21:25;97713.94;;;31.54;55.02
38880;BME280;25887;30.194;-97.880;2023-06-14T04:27:15;97703.91;;;31.48;55.66
38880;BME280;25887;30.194;-97.880;2023-06-14T04:29:47;97708.13;;;31.41;55.42
38880;BME280;25887;30.194;-97.880;2023-06-14T04:35:21;97725.34;;;31.37;55.52
38880;BME280;25887;30.194;-97.880;2023-06-14T04:37:50;97721.59;;;31.30;55.57
38880;BME280;25887;30.194;-97.880;2023-06-14T04:40:17;97723.53;;;31.28;55.50
38880;BME280;25887;30.194;-97.880;2023-06-14T04:42:44;97723.69;;;31.26;56.05
38880;BME280;25887;30.194;-97.880;2023-06-14T04:45:43;97729.16;;;31.25;55.86
38880;BME280;25887;30.194;-97.880;2023-06-14T04:48:32;97725.66;;;31.24;56.21
38880;BME280;25887;30.194;-97.880;2023-06-14T04:51:26;97732.78;;;31.24;55.78
38880;BME280;25887;30.194;-97.880;2023-06-14T04:56:47;97723.16;;;31.23;56.05
38880;BME280;25887;30.194;-97.880;2023-06-14T04:59:13;97721.34;;;31.23;56.12
38880;BME280;25887;30.194;-97.880;2023-06-14T05:01:48;97713.53;;;31.22;56.23
38880;BME280;25887;30.194;-97.880;2023-06-14T05:04:22;97715.03;;;31.24;55.97
38880;BME280;25887;30.194;-97.880;2023-06-14T05:06:56;97721.50;;;31.22;55.92
38880;BME280;25887;30.194;-97.880;2023-06-14T05:09:23;97724.22;;;31.20;56.17
38880;BME280;25887;30.194;-97.880;2023-06-14T05:11:49;97724.38;;;31.19;56.03
38880;BME280;25887;30.194;-97.880;2023-06-14T05:14:16;97726.22;;;31.18;56.41
38880;BME280;25887;30.194;-97.880;2023-06-14T05:16:51;97721.47;;;31.12;56.34
38880;BME280;25887;30.194;-97.880;2023-06-14T05:19:17;97724.28;;;31.11;56.29
38880;BME280;25887;30.194;-97.880;2023-06-14T05:21:44;97720.25;;;31.06;56.56
38880;BME280;25887;30.194;-97.880;2023-06-14T05:24:12;97723.03;;;31.05;56.45
38880;BME280;25887;30.194;-97.880;2023-06-14T05:26:57;97724.16;;;31.02;57.14
38880;BME280;25887;30.194;-97.880;2023-06-14T05:29:33;97722.09;;;30.96;57.10
38880;BME280;25887;30.194;-97.880;2023-06-14T05:31:59;97725.03;;;30.93;57.11
38880;BME280;25887;30.194;-97.880;2023-06-14T05:34:30;97724.34;;;30.91;57.22
38880;BME280;25887;30.194;-97.880;2023-06-14T05:36:57;97715.81;;;30.88;57.21
38880;BME280;25887;30.194;-97.880;2023-06-14T05:39:23;97728.25;;;30.87;57.39
38880;BME280;25887;30.194;-97.880;2023-06-14T05:42:03;97725.75;;;30.86;57.31
38880;BME280;25887;30.194;-97.880;2023-06-14T05:44:29;97718.94;;;30.83;57.19
38880;BME280;25887;30.194;-97.880;2023-06-14T05:47:03;97720.75;;;30.83;57.25
38880;BME280;25887;30.194;-97.880;2023-06-14T05:49:29;97721.84;;;30.80;57.26
38880;BME280;25887;30.194;-97.880;2023-06-14T05:51:56;97716.00;;;30.76;57.70
38880;BME280;25887;30.194;-97.880;2023-06-14T05:54:22;97715.16;;;30.76;57.45
38880;BME280;25887;30.194;-97.880;2023-06-14T05:59:59;97709.44;;;30.71;57.63
38880;BME280;25887;30.194;-97.880;2023-06-14T06:02:48;97707.09;;;30.68;57.81
38880;BME280;25887;30.194;-97.880;2023-06-14T06:05:14;97705.66;;;30.64;58.06
38880;BME280;25887;30.194;-97.880;2023-06-14T06:07:45;97696.19;;;30.61;57.98
38880;BME280;25887;30.194;-97.880;2023-06-14T06:10:20;97695.34;;;30.61;57.81
38880;BME280;25887;30.194;-97.880;2023-06-14T06:12:46;97705.94;;;30.61;58.02
38880;BME280;25887;30.194;-97.880;2023-06-14T06:15:14;97694.78;;;30.57;57.83
38880;BME280;25887;30.194;-97.880;2023-06-14T06:17:40;97703.72;;;30.56;58.12
38880;BME280;25887;30.194;-97.880;2023-06-14T06:20:25;97709.84;;;30.57;58.13
38880;BME280;25887;30.194;-97.880;2023-06-14T06:23:29;97698.56;;;30.55;58.21
38880;BME280;25887;30.194;-97.880;2023-06-14T06:25:56;97697.72;;;30.54;58.07
38880;BME280;25887;30.194;-97.880;2023-06-14T06:28:22;97693.41;;;30.53;57.98
38880;BME280;25887;30.194;-97.880;2023-06-14T06:31:06;97686.28;;;30.54;58.08
38880;BME280;25887;30.194;-97.880;2023-06-14T06:33:33;97678.59;;;30.50;58.25
38880;BME280;25887;30.194;-97.880;2023-06-14T06:36:49;97687.53;;;30.49;58.36
38880;BME280;25887;30.194;-97.880;2023-06-14T06:39:54;97677.53;;;30.43;58.13
38880;BME280;25887;30.194;-97.880;2023-06-14T06:42:25;97676.81;;;30.41;58.56
38880;BME280;25887;30.194;-97.880;2023-06-14T06:45:15;97683.09;;;30.40;58.37
38880;BME280;25887;30.194;-97.880;2023-06-14T06:47:42;97678.09;;;30.37;58.52
38880;BME280;25887;30.194;-97.880;2023-06-14T06:50:08;97678.34;;;30.34;58.56
38880;BME280;25887;30.194;-97.880;2023-06-14T06:52:34;97677.66;;;30.32;59.02
38880;BME280;25887;30.194;-97.880;2023-06-14T06:55:01;97672.34;;;30.32;58.61
38880;BME280;25887;30.194;-97.880;2023-06-14T06:57:34;97674.16;;;30.32;58.71
38880;BME280;25887;30.194;-97.880;2023-06-14T07:00:20;97677.81;;;30.31;58.52
38880;BME280;25887;30.194;-97.880;2023-06-14T07:03:10;97679.63;;;30.30;58.98
38880;BME280;25887;30.194;-97.880;2023-06-14T07:05:39;97671.94;;;30.27;58.85
38880;BME280;25887;30.194;-97.880;2023-06-14T07:08:19;97673.63;;;30.28;58.84
38880;BME280;25887;30.194;-97.880;2023-06-14T07:10:45;97678.22;;;30.26;58.73
38880;BME280;25887;30.194;-97.880;2023-06-14T07:13:39;97678.22;;;30.26;58.59
38880;BME280;25887;30.194;-97.880;2023-06-14T07:16:37;97673.19;;;30.23;58.89
38880;BME280;25887;30.194;-97.880;2023-06-14T07:19:13;97666.09;;;30.23;58.85
38880;BME280;25887;30.194;-97.880;2023-06-14T07:21:39;97670.56;;;30.23;58.78
38880;BME280;25887;30.194;-97.880;2023-06-14T07:24:30;97655.78;;;30.20;58.77
38880;BME280;25887;30.194;-97.880;2023-06-14T07:27:20;97646.03;;;30.21;nan
38880;BME280;25887;30.194;-97.880;2023-06-14T07:29:46;97653.13;;;30.20;58.92
38880;BME280;25887;30.194;-97.880;2023-06-14T07:32:12;97649.66;;;30.20;58.75
38880;BME280;25887;30.194;-97.880;2023-06-14T07:34:50;97646.03;;;30.21;58.79
38880;BME280;25887;30.194;-97.880;2023-06-14T07:37:27;97665.25;;;30.23;58.76
38880;BME280;25887;30.194;-97.880;2023-06-14T07:40:30;97669.72;;;30.22;58.61
38880;BME280;25887;30.194;-97.880;2023-06-14T07:42:56;97667.06;;;30.22;59.07
38880;BME280;25887;30.194;-97.880;2023-06-14T07:45:22;97659.28;;;30.21;58.77
38880;BME280;25887;30.194;-97.880;2023-06-14T07:47:48;97663.59;;;30.22;nan
38880;BME280;25887;30.194;-97.880;2023-06-14T07:50:15;97658.28;;;30.22;58.78
38880;BME280;25887;30.194;-97.880;2023-06-14T07:52:41;97656.47;;;30.22;58.92
38880;BME280;25887;30.194;-97.880;2023-06-14T07:55:08;97666.09;;;30.23;58.77
38880;BME280;25887;30.194;-97.880;2023-06-14T07:57:35;97660.78;;;30.23;58.91
38880;BME280;25887;30.194;-97.880;2023-06-14T08:00:20;97659.97;;;30.23;58.73
38880;BME280;25887;30.194;-97.880;2023-06-14T08:02:48;97660.94;;;30.22;58.67
38880;BME280;25887;30.194;-97.880;2023-06-14T08:05:14;97654.09;;;30.19;59.07
38880;BME280;25887;30.194;-97.880;2023-06-14T08:07:40;97654.09;;;30.19;58.87
38880;BME280;25887;30.194;-97.880;2023-06-14T08:10:08;97646.28;;;30.18;58.92
38880;BME280;25887;30.194;-97.880;2023-06-14T08:13:01;97643.78;;;30.16;58.96
38880;BME280;25887;30.194;-97.880;2023-06-14T08:15:27;97652.84;;;30.14;58.91
38880;BME280;25887;30.194;-97.880;2023-06-14T08:17:54;97640.59;;;30.13;59.03
38880;BME280;25887;30.194;-97.880;2023-06-14T08:20:20;97629.28;;;30.11;59.21
38880;BME280;25887;30.194;-97.880;2023-06-14T08:22:46;97625.94;;;30.09;59.27
38880;BME280;25887;30.194;-97.880;2023-06-14T08:25:13;97621.47;;;30.09;59.13
38880;BME280;25887;30.194;-97.880;2023-06-14T08:27:43;97622.31;;;30.10;59.00
38880;BME280;25887;30.194;-97.880;2023-06-14T08:30:10;97624.22;;;30.08;59.17
38880;BME280;25887;30.194;-97.880;2023-06-14T08:32:54;97626.88;;;30.08;59.21
38880;BME280;25887;30.194;-97.880;2023-06-14T08:35:22;97623.28;;;30.09;59.27
38880;BME280;25887;30.194;-97.880;2023-06-14T08:38:14;97625.94;;;30.09;59.34
38880;BME280;25887;30.194;-97.880;2023-06-14T08:40:42;97618.94;;;30.08;59.37
38880;BME280;25887;30.194;-97.880;2023-06-14T08:43:17;97618.25;;;30.06;59.46
38880;BME280;25887;30.194;-97.880;2023-06-14T08:46:03;97628.84;;;30.06;59.44
38880;BME280;25887;30.194;-97.880;2023-06-14T08:48:30;97623.81;;;30.03;59.38
38880;BME280;25887;30.194;-97.880;2023-06-14T08:51:08;97615.03;;;30.02;59.67
38880;BME280;25887;30.194;-97.880;2023-06-14T08:53:36;97608.91;;;30.02;59.74
38880;BME280;25887;30.194;-97.880;2023-06-14T08:56:08;97607.22;;;30.01;59.61
38880;BME280;25887;30.194;-97.880;2023-06-14T08:58:43;97617.81;;;30.01;59.62
38880;BME280;25887;30.194;-97.880;2023-06-14T09:01:11;97606.25;;;30.02;59.37
38880;BME280;25887;30.194;-97.880;2023-06-14T09:03:41;97607.22;;;30.01;59.72
38880;BME280;25887;30.194;-97.880;2023-06-14T09:06:08;97604.72;;;29.99;59.41
38880;BME280;25887;30.194;-97.880;2023-06-14T09:08:45;97609.03;;;30.00;59.73
38880;BME280;25887;30.194;-97.880;2023-06-14T09:11:41;97608.06;;;30.01;59.58
38880;BME280;25887;30.194;-97.880;2023-06-14T09:14:29;97610.03;;;29.99;59.67
38880;BME280;25887;30.194;-97.880;2023-06-14T09:16:56;97610.44;;;29.94;59.72
38880;BME280;25887;30.194;-97.880;2023-06-14T09:19:24;97613.91;;;29.95;59.81
38880;BME280;25887;30.194;-97.880;2023-06-14T09:22:11;97614.75;;;29.95;59.58
38880;BME280;25887;30.194;-97.880;2023-06-14T09:31:49;97610.16;;;29.88;59.79
38880;BME280;25887;30.194;-97.880;2023-06-14T09:34:16;97619.91;;;29.87;60.15
38880;BME280;25887;30.194;-97.880;2023-06-14T09:36:45;97612.94;;;29.86;59.95
38880;BME280;25887;30.194;-97.880;2023-06-14T09:42:30;97618.25;;;29.86;59.97
38880;BME280;25887;30.194;-97.880;2023-06-14T09:44:57;97619.22;;;29.85;60.03
38880;BME280;25887;30.194;-97.880;2023-06-14T09:47:25;97625.34;;;29.86;59.99
38880;BME280;25887;30.194;-97.880;2023-06-14T09:49:51;97618.25;;;29.86;60.08
38880;BME280;25887;30.194;-97.880;2023-06-14T09:52:26;97629.66;;;29.87;60.06
38880;BME280;25887;30.194;-97.880;2023-06-14T09:54:54;97638.44;;;29.87;59.96
38880;BME280;25887;30.194;-97.880;2023-06-14T09:57:22;97638.59;;;29.86;60.23
38880;BME280;25887;30.194;-97.880;2023-06-14T10:00:00;97642.06;;;29.86;59.91
38880;BME280;25887;30.194;-97.880;2023-06-14T10:02:36;97652.66;;;29.86;60.10
38880;BME280;25887;30.194;-97.880;2023-06-14T10:05:09;97645.44;;;29.88;60.16
38880;BME280;25887;30.194;-97.880;2023-06-14T10:07:44;97644.72;;;29.86;60.06
38880;BME280;25887;30.194;-97.880;2023-06-14T10:10:15;97649.19;;;29.86;59.96
38880;BME280;25887;30.194;-97.880;2023-06-14T10:13:23;97652.66;;;29.86;60.18
38880;BME280;25887;30.194;-97.880;2023-06-14T10:17:12;97658.41;;;29.82;59.97
38880;BME280;25887;30.194;-97.880;2023-06-14T10:19:27;97654.09;;;29.81;60.06
38880;BME280;25887;30.194;-97.880;2023-06-14T10:22:24;97650.56;;;29.80;60.21
38880;BME280;25887;30.194;-97.880;2023-06-14T10:25:06;97640.94;;;29.79;59.80
38880;BME280;25887;30.194;-97.880;2023-06-14T10:27:37;97642.63;;;29.80;59.63
38880;BME280;25887;30.194;-97.880;2023-06-14T10:30:06;97641.94;;;29.78;59.68
38880;BME280;25887;30.194;-97.880;2023-06-14T10:32:33;97652.66;;;29.77;60.13
38880;BME280;25887;30.194;-97.880;2023-06-14T10:35:09;97658.94;;;29.76;60.16
38880;BME280;25887;30.194;-97.880;2023-06-14T10:37:41;97655.47;;;29.75;59.74
38880;BME280;25887;30.194;-97.880;2023-06-14T10:40:08;97661.72;;;29.74;60.02
38880;BME280;25887;30.194;-97.880;2023-06-14T10:42:55;97660.06;;;29.73;60.16
38880;BME280;25887;30.194;-97.880;2023-06-14T10:45:21;97655.47;;;29.75;59.87
38880;BME280;25887;30.194;-97.880;2023-06-14T10:47:49;97651.41;;;29.71;60.08
38880;BME280;25887;30.194;-97.880;2023-06-14T10:50:28;97654.88;;;29.72;60.12
38880;BME280;25887;30.194;-97.880;2023-06-14T10:52:55;97647.09;;;29.70;60.32
38880;BME280;25887;30.194;-97.880;2023-06-14T10:55:22;97647.38;;;29.67;60.33
38880;BME280;25887;30.194;-97.880;2023-06-14T10:57:53;97643.75;;;29.68;60.02
38880;BME280;25887;30.194;-97.880;2023-06-14T11:00:25;97643.59;;;29.69;60.16
38880;BME280;25887;30.194;-97.880;2023-06-14T11:05:54;97650.72;;;29.69;60.00
38880;BME280;25887;30.194;-97.880;2023-06-14T11:11:35;97651.53;;;29.69;60.12
38880;BME280;25887;30.194;-97.880;2023-06-14T11:14:02;97643.88;;;29.66;60.23
38880;BME280;25887;30.194;-97.880;2023-06-14T11:16:29;97649.03;;;29.68;60.26
38880;BME280;25887;30.194;-97.880;2023-06-14T11:19:37;97652.38;;;29.70;60.13
38880;BME280;25887;30.194;-97.880;2023-06-14T11:22:04;97652.53;;;29.68;59.95
38880;BME280;25887;30.194;-97.880;2023-06-14T11:24:33;97662.13;;;29.69;60.18
38880;BME280;25887;30.194;-97.880;2023-06-14T11:27:16;97656.84;;;29.69;60.00
38880;BME280;25887;30.194;-97.880;2023-06-14T11:29:49;97660.91;;;29.74;59.83
38880;BME280;25887;30.194;-97.880;2023-06-14T11:32:16;97658.38;;;29.72;59.79
38880;BME280;25887;30.194;-97.880;2023-06-14T11:35:16;97658.25;;;29.74;59.96
38880;BME280;25887;30.194;-97.880;2023-06-14T11:37:42;97658.50;;;29.71;59.91
38880;BME280;25887;30.194;-97.880;2023-06-14T11:40:16;97652.38;;;29.70;60.17
38880;BME280;25887;30.194;-97.880;2023-06-14T11:42:42;97651.53;;;29.69;60.32
38880;BME280;25887;30.194;-97.880;2023-06-14T11:45:47;97646.94;;;29.72;60.22
38880;BME280;25887;30.194;-97.880;2023-06-14T11:49:15;97653.22;;;29.71;60.01
38880;BME280;25887;30.194;-97.880;2023-06-14T12:40:25;97677.47;;;29.66;59.81
38880;BME280;25887;30.194;-97.880;2023-06-14T12:42:52;97673.84;;;29.67;59.49
38880;BME280;25887;30.194;-97.880;2023-06-14T12:45:28;97675.22;;;29.71;59.59
38880;BME280;25887;30.194;-97.880;2023-06-14T12:51:26;97669.97;;;29.81;59.68
38880;BME280;25887;30.194;-97.880;2023-06-14T12:53:53;97674.69;;;29.87;59.62
38880;BME280;25887;30.194;-97.880;2023-06-14T12:56:19;97685.72;;;29.92;59.77
38880;BME280;25887;30.194;-97.880;2023-06-14T12:58:45;97689.88;;;29.94;59.62
38880;BME280;25887;30.194;-97.880;2023-06-14T13:01:12;97689.63;;;29.98;59.54
38880;BME280;25887;30.194;-97.880;2023-06-14T13:03:45;97688.06;;;29.95;59.72
38880;BME280;25887;30.194;-97.880;2023-06-14T13:06:11;97691.56;;;29.95;59.43
38880;BME280;25887;30.194;-97.880;2023-06-14T13:12:15;97692.00;;;29.91;59.42
38880;BME280;25887;30.194;-97.880;2023-06-14T13:14:41;97699.78;;;29.92;59.47
38880;BME280;25887;30.194;-97.880;2023-06-14T13:17:11;97703.13;;;29.94;59.35
38880;BME280;25887;30.194;-97.880;2023-06-14T13:19:37;97711.81;;;29.96;59.48
38880;BME280;25887;30.194;-97.880;2023-06-14T13:22:04;97713.03;;;30.02;59.55
38880;BME280;25887;30.194;-97.880;2023-06-14T13:24:31;97706.66;;;30.05;59.46
38880;BME280;25887;30.194;-97.880;2023-06-14T13:26:57;97710.00;;;30.07;59.48
38880;BME280;25887;30.194;-97.880;2023-06-14T13:29:57;97713.38;;;30.09;59.21
38880;BME280;25887;30.194;-97.880;2023-06-14T13:32:23;97714.88;;;30.11;59.19
38880;BME280;25887;30.194;-97.880;2023-06-14T13:35:11;97720.75;;;30.15;59.23
38880;BME280;25887;30.194;-97.880;2023-06-14T13:38:03;97717.13;;;30.16;59.27
38880;BME280;25887;30.194;-97.880;2023-06-14T13:40:31;97716.84;;;30.19;59.01
38880;BME280;25887;30.194;-97.880;2023-06-14T13:43:17;97721.88;;;30.22;59.08
38880;BME280;25887;30.194;-97.880;2023-06-14T13:45:44;97715.91;;;30.20;59.03
38880;BME280;25887;30.194;-97.880;2023-06-14T13:48:10;97717.56;;;30.21;58.96
38880;BME280;25887;30.194;-97.880;2023-06-14T13:50:36;97717.56;;;30.21;58.88
38880;BME280;25887;30.194;-97.880;2023-06-14T13:53:13;97710.16;;;30.24;59.06
38880;BME280;25887;30.194;-97.880;2023-06-14T13:55:41;97712.66;;;30.26;58.79
38880;BME280;25887;30.194;-97.880;2023-06-14T13:58:07;97715.06;;;30.29;58.54
38880;BME280;25887;30.194;-97.880;2023-06-14T14:00:33;97724.38;;;30.33;58.88
38880;BME280;25887;30.194;-97.880;2023-06-14T14:03:01;97731.25;;;30.36;58.53
38880;BME280;25887;30.194;-97.880;2023-06-14T14:05:27;97735.25;;;30.40;58.55
38880;BME280;25887;30.194;-97.880;2023-06-14T14:07:55;97730.81;;;30.40;58.64
38880;BME280;25887;30.194;-97.880;2023-06-14T14:10:52;97733.31;;;30.42;58.53
38880;BME280;25887;30.194;-97.880;2023-06-14T14:13:18;97740.41;;;30.41;58.51
38880;BME280;25887;30.194;-97.880;2023-06-14T14:15:45;97746.44;;;30.43;58.16
38880;BME280;25887;30.194;-97.880;2023-06-14T14:18:11;97745.59;;;30.43;58.00
38880;BME280;25887;30.194;-97.880;2023-06-14T14:20:39;97751.75;;;30.43;57.87
38880;BME280;25887;30.194;-97.880;2023-06-14T17:24:31;97748.13;;;33.36;51.82
38880;BME280;25887;30.194;-97.880;2023-06-14T17:27:17;97754.19;;;33.46;51.33
38880;BME280;25887;30.194;-97.880;2023-06-14T17:29:50;97747.56;;;33.50;51.52
38880;BME280;25887;30.194;-97.880;2023-06-14T17:32:16;97747.22;;;33.53;51.02
38880;BME280;25887;30.194;-97.880;2023-06-14T17:34:42;97739.09;;;33.55;51.13